Time;durP1;ratioP1;P1;durP2;ratioP2;P2;SDS_P1;SDS_P2;PMS_P1;PMS_P2;Temp;Humidity;BMP_temperature;BMP_pressure;BME280_temperature;BME280_humidity;BME280_pressure;Samples;Min_cycle;Max_cycle;Signal;HPM_P1;HPM_P2
2021/06/06 00:00:31;;;;;;;0.00;0.00;;;10.00;99.90;;;;;;4990393;28;20206;-69
2021/06/06 00:02:58;;;;;;;0.00;0.00;;;10.00;99.90;;;;;;4991095;28;20201;-69
2021/06/06 00:05:28;;;;;;;0.00;0.00;;;10.00;99.90;;;;;;4991202;28;20575;-70
2021/06/06 00:07:54;;;;;;;0.00;0.00;;;9.90;99.90;;;;;;4991045;28;20202;-68
2021/06/06 00:10:21;;;;;;;0.00;0.00;;;9.90;99.90;;;;;;4990075;28;20236;-68
2021/06/06 00:12:49;;;;;;;0.00;0.00;;;9.80;99.90;;;;;;4990680;28;20201;-69
2021/06/06 00:15:17;;;;;;;0.00;0.00;;;9.80;99.90;;;;;;4991000;28;20201;-69
2021/06/06 00:17:44;;;;;;;0.00;0.00;;;9.80;99.90;;;;;;4990973;28;20575;-68
2021/06/06 00:20:12;;;;;;;0.00;0.00;;;9.80;99.90;;;;;;4989410;28;20260;-69
2021/06/06 00:22:39;;;;;;;0.00;0.00;;;9.80;99.90;;;;;;4990749;28;20206;-68
2021/06/06 00:25:09;;;;;;;0.00;0.00;;;9.80;99.90;;;;;;4990494;28;20217;-68
2021/06/06 00:27:36;;;;;;;0.00;0.00;;;9.80;99.90;;;;;;4990794;28;20194;-69
2021/06/06 00:30:08;;;;;;;0.00;0.00;;;9.70;99.90;;;;;;4989818;28;20197;-68
2021/06/06 00:32:35;;;;;;;0.00;0.00;;;9.70;99.90;;;;;;4990182;28;20726;-68
2021/06/06 00:35:01;;;;;;;0.00;0.00;;;9.70;99.90;;;;;;4990183;28;20201;-69
2021/06/06 00:37:28;;;;;;;0.00;0.00;;;9.70;99.90;;;;;;4989611;28;20236;-68
2021/06/06 00:39:54;;;;;;;0.00;0.00;;;9.70;99.90;;;;;;4982411;28;20202;-68
2021/06/06 00:42:23;;;;;;;0.00;0.00;;;9.70;99.90;;;;;;4990444;28;20205;-69
2021/06/06 00:44:50;;;;;;;0.00;0.00;;;9.70;99.90;;;;;;4990234;28;20206;-69
2021/06/06 00:47:18;;;;;;;0.00;0.00;;;9.60;99.90;;;;;;4990233;28;20197;-68
2021/06/06 00:49:45;;;;;;;0.00;0.00;;;9.70;99.90;;;;;;4989624;28;20209;-69
2021/06/06 00:52:15;;;;;;;0.00;0.00;;;9.70;99.90;;;;;;4989899;28;20221;-68
2021/06/06 00:54:44;;;;;;;0.00;0.00;;;9.80;99.90;;;;;;4990306;28;20194;-69
2021/06/06 00:57:15;;;;;;;0.00;0.00;;;9.80;99.90;;;;;;4989784;28;20228;-69
2021/06/06 00:59:46;;;;;;;0.00;0.00;;;9.80;99.90;;;;;;4989240;28;20197;-70
2021/06/06 01:02:13;;;;;;;0.00;0.00;;;9.80;99.90;;;;;;4989828;28;20647;-69
2021/06/06 01:04:44;;;;;;;0.00;0.00;;;9.80;99.90;;;;;;4989200;28;20201;-69
2021/06/06 01:07:11;;;;;;;0.00;0.00;;;9.80;99.90;;;;;;4989244;28;20252;-69
2021/06/06 01:09:37;;;;;;;0.00;0.00;;;9.80;99.90;;;;;;4989096;28;20205;-70
2021/06/06 01:12:11;;;;;;;0.00;0.00;;;9.70;99.90;;;;;;4989849;28;20225;-68
2021/06/06 01:14:43;;;;;;;0.00;0.00;;;9.70;99.90;;;;;;4988989;28;20556;-68
2021/06/06 01:17:14;;;;;;;0.00;0.00;;;9.70;99.90;;;;;;4989580;28;20896;-68
2021/06/06 01:19:47;;;;;;;0.00;0.00;;;9.70;99.90;;;;;;4988015;28;20197;-68
2021/06/06 01:22:37;;;;;;;0.00;0.00;;;9.70;99.90;;;;;;4989677;28;20205;-68
2021/06/06 01:25:10;;;;;;;0.00;0.00;;;9.70;99.90;;;;;;4989410;28;20190;-68
2021/06/06 01:27:40;;;;;;;0.00;0.00;;;9.60;99.90;;;;;;4989142;28;20201;-68
2021/06/06 01:30:10;;;;;;;0.00;0.00;;;9.60;99.90;;;;;;4988510;28;20208;-68
2021/06/06 01:32:41;;;;;;;0.00;0.00;;;9.60;99.90;;;;;;4988492;28;20916;-68
2021/06/06 01:35:11;;;;;;;0.00;0.00;;;9.50;99.90;;;;;;4988967;28;20202;-68
2021/06/06 01:37:44;;;;;;;0.00;0.00;;;9.50;99.90;;;;;;4989507;28;20190;-69
2021/06/06 01:40:17;;;;;;;0.00;0.00;;;9.50;99.90;;;;;;4988755;28;20213;-68
2021/06/06 01:42:47;;;;;;;0.00;0.00;;;9.40;99.90;;;;;;4988363;28;20710;-68
2021/06/06 01:45:18;;;;;;;0.00;0.00;;;9.50;99.90;;;;;;4989426;28;20263;-68
2021/06/06 01:47:49;;;;;;;0.00;0.00;;;9.50;99.90;;;;;;4989547;28;20197;-68
2021/06/06 01:50:20;;;;;;;0.00;0.00;;;9.60;99.90;;;;;;4988404;28;20208;-68
2021/06/06 01:52:48;;;;;;;0.10;0.10;;;9.60;99.90;;;;;;4989211;28;20193;-68
2021/06/06 01:55:19;;;;;;;0.00;0.00;;;9.60;99.90;;;;;;4989527;28;20255;-69
2021/06/06 01:57:48;;;;;;;0.00;0.00;;;9.50;99.90;;;;;;4989460;28;20186;-68
2021/06/06 02:00:25;;;;;;;0.00;0.00;;;9.50;99.90;;;;;;4988161;28;20197;-68
2021/06/06 02:02:52;;;;;;;0.00;0.00;;;9.50;99.90;;;;;;4989333;28;20197;-68
2021/06/06 02:05:19;;;;;;;0.00;0.00;;;9.50;99.90;;;;;;4988960;28;20205;-68
2021/06/06 02:07:49;;;;;;;0.00;0.00;;;9.50;99.90;;;;;;4989170;28;20721;-68
2021/06/06 02:10:25;;;;;;;0.00;0.00;;;9.50;99.90;;;;;;4988387;28;20221;-68
2021/06/06 02:12:55;;;;;;;0.00;0.00;;;9.40;99.90;;;;;;4989187;28;20190;-69
2021/06/06 02:15:25;;;;;;;0.00;0.00;;;9.50;99.90;;;;;;4989107;28;20202;-69
2021/06/06 02:17:53;;;;;;;0.00;0.00;;;9.50;99.90;;;;;;4988881;28;20198;-68
2021/06/06 02:20:21;;;;;;;0.00;0.00;;;9.40;99.90;;;;;;4988191;28;20264;-68
2021/06/06 02:22:48;;;;;;;0.00;0.00;;;9.40;99.90;;;;;;4988950;28;20821;-68
2021/06/06 02:25:16;;;;;;;0.00;0.00;;;9.30;99.90;;;;;;4989186;28;20257;-68
2021/06/06 02:27:47;;;;;;;0.00;0.00;;;9.30;99.90;;;;;;4988361;28;20205;-68
2021/06/06 02:30:18;;;;;;;0.00;0.00;;;9.30;99.90;;;;;;4988033;28;20750;-68
2021/06/06 02:32:54;;;;;;;0.00;0.00;;;9.30;99.90;;;;;;4988841;28;20186;-68
2021/06/06 02:35:25;;;;;;;0.00;0.00;;;9.20;99.90;;;;;;4988823;28;20186;-68
2021/06/06 02:37:57;;;;;;;0.00;0.00;;;9.20;99.90;;;;;;4988766;28;20197;-68
2021/06/06 02:40:29;;;;;;;0.00;0.00;;;9.10;99.90;;;;;;4988128;28;20221;-68
2021/06/06 02:43:00;;;;;;;0.00;0.00;;;9.20;99.90;;;;;;4988935;28;20194;-68
2021/06/06 02:45:30;;;;;;;0.00;0.00;;;9.20;99.90;;;;;;4992226;28;20190;-68
2021/06/06 02:48:01;;;;;;;0.00;0.00;;;9.20;99.90;;;;;;4992594;28;20201;-68
2021/06/06 02:50:32;;;;;;;0.00;0.00;;;9.30;99.90;;;;;;4991738;28;20214;-68
2021/06/06 02:53:02;;;;;;;0.00;0.00;;;9.30;99.90;;;;;;4992383;28;20240;-68
2021/06/06 02:55:35;;;;;;;0.00;0.00;;;9.20;99.90;;;;;;4992452;28;20200;-68
2021/06/06 02:58:05;;;;;;;0.00;0.00;;;9.20;99.90;;;;;;4991649;28;20244;-68
2021/06/06 03:00:35;;;;;;;0.00;0.00;;;9.20;99.90;;;;;;4991671;28;20600;-68
2021/06/06 03:03:07;;;;;;;0.00;0.00;;;9.20;99.90;;;;;;4991959;28;20285;-68
2021/06/06 03:05:34;;;;;;;0.00;0.00;;;9.20;99.90;;;;;;4992271;28;20194;-68
2021/06/06 03:08:03;;;;;;;0.00;0.00;;;9.20;99.90;;;;;;4990921;28;20197;-67
2021/06/06 03:10:34;;;;;;;0.00;0.00;;;9.20;99.90;;;;;;4990769;28;20224;-68
2021/06/06 03:13:05;;;;;;;0.00;0.00;;;9.20;99.90;;;;;;4991978;28;20194;-69
2021/06/06 03:15:35;;;;;;;0.00;0.00;;;9.30;99.90;;;;;;4991876;28;20189;-67
2021/06/06 03:18:04;;;;;;;0.00;0.00;;;9.30;99.90;;;;;;4992020;28;20245;-68
2021/06/06 03:20:34;;;;;;;0.00;0.00;;;9.30;99.90;;;;;;4990415;28;20232;-68
2021/06/06 03:23:02;;;;;;;0.00;0.00;;;9.20;99.90;;;;;;4991862;28;20202;-68
2021/06/06 03:25:41;;;;;;;0.00;0.00;;;9.20;99.90;;;;;;4991849;28;20644;-68
2021/06/06 03:28:09;;;;;;;0.00;0.00;;;9.10;99.90;;;;;;4991837;28;20276;-68
2021/06/06 03:30:38;;;;;;;0.00;0.00;;;9.10;99.90;;;;;;4990139;28;20234;-68
2021/06/06 03:33:09;;;;;;;0.00;0.00;;;9.00;99.90;;;;;;4991752;28;20198;-68
2021/06/06 03:35:36;;;;;;;0.10;0.10;;;9.00;99.90;;;;;;4991434;28;20664;-68
2021/06/06 03:38:04;;;;;;;0.00;0.00;;;8.90;99.90;;;;;;4991300;28;20202;-68
2021/06/06 03:40:35;;;;;;;0.00;0.00;;;8.90;99.90;;;;;;4990493;28;20670;-68
2021/06/06 03:43:02;;;;;;;0.00;0.00;;;8.90;99.90;;;;;;4991565;28;20186;-67
2021/06/06 03:45:29;;;;;;;0.00;0.00;;;8.90;99.90;;;;;;4991360;28;20202;-68
2021/06/06 03:47:58;;;;;;;0.00;0.00;;;8.90;99.90;;;;;;4991433;28;20194;-68
2021/06/06 03:50:26;;;;;;;0.00;0.00;;;8.90;99.90;;;;;;4990466;28;20198;-67
2021/06/06 03:52:53;;;;;;;0.50;0.50;;;8.80;99.90;;;;;;4991324;28;20250;-67
2021/06/06 03:55:20;;;;;;;0.00;0.00;;;8.90;99.90;;;;;;4990323;28;20202;-67
2021/06/06 03:57:48;;;;;;;0.00;0.00;;;8.90;99.90;;;;;;4991408;28;20256;-67
2021/06/06 04:00:20;;;;;;;0.00;0.00;;;8.90;99.90;;;;;;4990552;28;20228;-71
2021/06/06 04:02:47;;;;;;;0.00;0.00;;;9.00;99.90;;;;;;4991320;28;20661;-67
2021/06/06 04:05:15;;;;;;;0.00;0.00;;;9.10;99.90;;;;;;4990932;28;20205;-67
2021/06/06 04:07:41;;;;;;;0.00;0.00;;;9.10;99.90;;;;;;4990711;28;20229;-68
2021/06/06 04:10:09;;;;;;;0.00;0.00;;;9.20;99.90;;;;;;4989848;28;20205;-67
2021/06/06 04:12:35;;;;;;;0.00;0.00;;;9.30;99.90;;;;;;4990890;28;20298;-67
2021/06/06 04:15:05;;;;;;;0.00;0.00;;;9.40;99.90;;;;;;4990789;28;20216;-68
2021/06/06 04:17:31;;;;;;;0.00;0.00;;;9.40;99.90;;;;;;4990900;28;20606;-68
2021/06/06 04:19:58;;;;;;;0.10;0.10;;;9.50;99.90;;;;;;4989958;28;20287;-67
2021/06/06 04:22:25;;;;;;;0.00;0.00;;;9.60;99.90;;;;;;4990418;28;20193;-67
2021/06/06 04:24:51;;;;;;;0.00;0.00;;;9.70;99.90;;;;;;4990450;28;20201;-67
2021/06/06 04:27:18;;;;;;;0.00;0.00;;;9.80;99.90;;;;;;4990268;28;20197;-67
2021/06/06 04:29:46;;;;;;;0.00;0.00;;;9.80;99.90;;;;;;4989941;28;20209;-67
2021/06/06 04:32:16;;;;;;;0.00;0.00;;;10.00;99.90;;;;;;4990376;28;20329;-68
2021/06/06 04:34:44;;;;;;;0.00;0.00;;;10.10;99.90;;;;;;4990312;28;20194;-67
2021/06/06 04:37:11;;;;;;;0.00;0.00;;;10.20;99.90;;;;;;4989504;28;20234;-69
2021/06/06 04:39:38;;;;;;;0.00;0.00;;;10.30;99.90;;;;;;4988894;28;20213;-67
2021/06/06 04:42:08;;;;;;;0.00;0.00;;;10.40;99.90;;;;;;4990209;28;20217;-67
2021/06/06 04:44:34;;;;;;;0.00;0.00;;;10.60;99.90;;;;;;4989910;28;20197;-67
2021/06/06 04:47:01;;;;;;;0.00;0.00;;;10.70;99.90;;;;;;4989471;28;20237;-67
2021/06/06 04:49:28;;;;;;;0.00;0.00;;;10.80;99.90;;;;;;4989263;28;20195;-67
2021/06/06 04:51:55;;;;;;;0.00;0.00;;;11.00;99.90;;;;;;4990090;28;20222;-68
2021/06/06 04:54:21;;;;;;;0.00;0.00;;;11.00;99.90;;;;;;4990142;28;20201;-67
2021/06/06 04:56:48;;;;;;;0.00;0.00;;;11.20;99.90;;;;;;4990094;28;20202;-67
2021/06/06 04:59:14;;;;;;;0.00;0.00;;;11.30;99.90;;;;;;4989416;28;20234;-67
2021/06/06 05:01:41;;;;;;;0.00;0.00;;;11.50;99.90;;;;;;4990102;28;20197;-68
2021/06/06 05:04:07;;;;;;;0.00;0.00;;;11.70;99.90;;;;;;4990058;28;20201;-67
2021/06/06 05:06:35;;;;;;;0.00;0.00;;;11.80;99.90;;;;;;4989965;28;20271;-67
2021/06/06 05:09:02;;;;;;;0.00;0.00;;;12.00;99.90;;;;;;4988996;28;20193;-68
2021/06/06 05:11:29;;;;;;;0.00;0.00;;;12.20;99.90;;;;;;4989505;28;20229;-68
2021/06/06 05:13:55;;;;;;;0.00;0.00;;;12.30;99.90;;;;;;4989601;28;20535;-67
2021/06/06 05:16:23;;;;;;;0.00;0.00;;;12.40;99.90;;;;;;4989844;28;20252;-69
2021/06/06 05:18:49;;;;;;;0.00;0.00;;;12.50;99.90;;;;;;4989009;28;20204;-68
2021/06/06 05:21:16;;;;;;;0.00;0.00;;;12.70;99.90;;;;;;4989857;28;20564;-68
2021/06/06 05:23:44;;;;;;;0.00;0.00;;;12.80;99.90;;;;;;4989866;28;20201;-69
2021/06/06 05:26:10;;;;;;;0.00;0.00;;;12.90;99.90;;;;;;4989382;28;20260;-71
2021/06/06 05:28:37;;;;;;;0.00;0.00;;;13.10;99.90;;;;;;4988178;28;20525;-68
2021/06/06 05:31:06;;;;;;;0.10;0.10;;;13.30;99.90;;;;;;4988284;28;20308;-70
2021/06/06 05:33:33;;;;;;;0.10;0.10;;;13.40;99.90;;;;;;4970229;28;20194;-69
2021/06/06 05:36:00;;;;;;;0.20;0.20;;;13.50;99.90;;;;;;4969873;28;20237;-68
2021/06/06 05:38:31;;;;;;;0.00;0.00;;;13.70;99.90;;;;;;4972082;28;20288;-70
2021/06/06 05:41:00;;;;;;;0.00;0.00;;;13.80;99.90;;;;;;4989569;28;20228;-69
2021/06/06 05:43:27;;;;;;;1.40;0.50;;;13.90;99.90;;;;;;4989175;28;20287;-70
2021/06/06 05:45:54;;;;;;;0.40;0.40;;;14.10;99.90;;;;;;4988741;28;20614;-70
2021/06/06 05:48:21;;;;;;;0.13;0.13;;;14.30;99.90;;;;;;4988272;28;20197;-68
2021/06/06 05:50:51;;;;;;;0.43;0.43;;;14.50;99.90;;;;;;4988985;28;20229;-68
2021/06/06 05:53:18;;;;;;;0.00;0.00;;;14.70;99.90;;;;;;4989037;28;20252;-70
2021/06/06 05:55:45;;;;;;;0.00;0.00;;;15.20;99.90;;;;;;4989142;28;20204;-69
2021/06/06 05:58:14;;;;;;;0.00;0.00;;;15.70;99.90;;;;;;4988738;28;20200;-70
2021/06/06 06:00:43;;;;;;;0.00;0.00;;;16.60;99.90;;;;;;4988093;28;20198;-71
2021/06/06 06:03:09;;;;;;;0.10;0.10;;;17.50;99.90;;;;;;4989282;28;20197;-72
2021/06/06 06:05:37;;;;;;;0.00;0.00;;;18.00;99.90;;;;;;4989425;28;20194;-69
2021/06/06 06:08:16;;;;;;;0.00;0.00;;;18.90;99.90;;;;;;4988705;28;20570;-70
2021/06/06 06:10:44;;;;;;;0.00;0.00;;;19.70;99.90;;;;;;4969626;28;20860;-73
2021/06/06 06:13:12;;;;;;;0.00;0.00;;;20.90;99.90;;;;;;4969797;28;20627;-70
2021/06/06 06:15:39;;;;;;;0.00;0.00;;;21.60;99.90;;;;;;4969772;28;20289;-70
2021/06/06 06:18:06;;;;;;;0.00;0.00;;;22.50;99.90;;;;;;4970006;28;20199;-72
2021/06/06 06:20:32;;;;;;;0.00;0.00;;;23.50;99.90;;;;;;4992528;28;20677;-69
2021/06/06 06:22:59;;;;;;;0.00;0.00;;;23.80;99.90;;;;;;4993077;28;20724;-69
2021/06/06 06:25:25;;;;;;;0.00;0.00;;;24.00;99.90;;;;;;4991682;28;20201;-69
2021/06/06 06:27:52;;;;;;;0.00;0.00;;;24.80;99.90;;;;;;4992724;28;20244;-69
2021/06/06 06:30:24;;;;;;;0.00;0.00;;;24.90;99.90;;;;;;4991822;28;20206;-68
2021/06/06 06:32:51;;;;;;;0.00;0.00;;;25.20;99.90;;;;;;4992818;28;20217;-67
2021/06/06 06:35:18;;;;;;;0.00;0.00;;;25.00;99.90;;;;;;4992362;28;20567;-69
2021/06/06 06:37:44;;;;;;;0.00;0.00;;;25.40;99.90;;;;;;4992926;28;20200;-71
2021/06/06 06:40:13;;;;;;;0.00;0.00;;;25.60;99.90;;;;;;4991968;28;20202;-71
2021/06/06 06:42:40;;;;;;;0.00;0.00;;;25.60;99.90;;;;;;4992226;28;20237;-68
2021/06/06 06:45:09;;;;;;;0.00;0.00;;;26.10;99.90;;;;;;4992205;28;20964;-68
2021/06/06 06:47:37;;;;;;;0.20;0.20;;;26.40;99.90;;;;;;4992573;28;20763;-68
2021/06/06 06:50:04;;;;;;;0.00;0.00;;;26.10;99.90;;;;;;4990354;28;20691;-68
2021/06/06 06:52:36;;;;;;;0.15;0.15;;;26.40;99.90;;;;;;4992160;28;20357;-68
2021/06/06 06:55:04;;;;;;;0.05;0.05;;;26.50;99.90;;;;;;4992465;28;20201;-68
2021/06/06 06:57:31;;;;;;;0.17;0.08;;;26.60;99.90;;;;;;4992029;28;20205;-68
2021/06/06 06:59:57;;;;;;;0.98;0.32;;;26.50;99.90;;;;;;4991313;28;20571;-69
2021/06/06 07:02:24;;;;;;;0.10;0.10;;;26.80;99.90;;;;;;4992425;28;20213;-70
2021/06/06 07:04:52;;;;;;;0.00;0.00;;;27.00;99.90;;;;;;4991402;28;20202;-68
2021/06/06 07:07:18;;;;;;;0.00;0.00;;;27.30;99.90;;;;;;4991843;28;20671;-68
2021/06/06 07:09:45;;;;;;;0.00;0.00;;;27.70;99.90;;;;;;4991485;28;20236;-68
2021/06/06 07:12:12;;;;;;;0.00;0.00;;;28.20;99.90;;;;;;4991732;28;20240;-67
2021/06/06 07:14:38;;;;;;;0.00;0.00;;;28.00;99.90;;;;;;4991870;28;20817;-69
2021/06/06 07:17:05;;;;;;;0.75;0.38;;;28.20;99.90;;;;;;4992112;28;20248;-67
2021/06/06 07:19:32;;;;;;;0.00;0.00;;;28.40;99.90;;;;;;4990989;28;20597;-67
2021/06/06 07:22:00;;;;;;;0.00;0.00;;;28.00;99.90;;;;;;4991967;28;20198;-67
2021/06/06 07:24:26;;;;;;;0.00;0.00;;;28.20;99.90;;;;;;4991583;28;20670;-68
2021/06/06 07:26:53;;;;;;;0.15;0.15;;;28.40;99.90;;;;;;4989967;28;20200;-70
2021/06/06 07:29:22;;;;;;;0.00;0.00;;;28.20;99.90;;;;;;4988006;28;20209;-69
2021/06/06 07:31:53;;;;;;;0.00;0.00;;;28.40;99.90;;;;;;4989011;28;20232;-68
2021/06/06 07:34:20;;;;;;;0.28;0.28;;;28.60;99.90;;;;;;4988155;28;20228;-69
2021/06/06 07:36:47;;;;;;;0.00;0.00;;;28.80;99.90;;;;;;4991523;28;20296;-68
2021/06/06 07:39:15;;;;;;;0.10;0.10;;;28.60;99.90;;;;;;4988328;28;20201;-68
2021/06/06 07:41:42;;;;;;;0.00;0.00;;;28.40;99.90;;;;;;4991132;28;20205;-70
2021/06/06 07:44:08;;;;;;;0.00;0.00;;;28.20;99.90;;;;;;4991150;28;20198;-70
2021/06/06 07:46:35;;;;;;;0.00;0.00;;;28.00;99.90;;;;;;4991554;28;20197;-69
2021/06/06 07:49:02;;;;;;;0.00;0.00;;;28.20;99.90;;;;;;4990446;28;20198;-72
2021/06/06 07:51:28;;;;;;;0.00;0.00;;;28.10;99.90;;;;;;4978087;28;20222;-70
2021/06/06 07:53:55;;;;;;;0.00;0.00;;;28.50;99.90;;;;;;4971934;28;20206;-70
2021/06/06 07:56:24;;;;;;;0.25;0.10;;;28.40;99.90;;;;;;4971856;28;20206;-70
2021/06/06 07:58:51;;;;;;;0.00;0.00;;;28.50;99.90;;;;;;4988424;28;20201;-70
2021/06/06 08:01:17;;;;;;;0.10;0.08;;;28.40;99.90;;;;;;4991396;28;20217;-69
2021/06/06 08:03:44;;;;;;;0.00;0.00;;;28.30;99.90;;;;;;4922687;28;20210;-71
2021/06/06 08:06:12;;;;;;;0.10;0.10;;;28.30;99.90;;;;;;4948659;28;20651;-70
2021/06/06 08:08:38;;;;;;;0.00;0.00;;;27.80;99.90;;;;;;4934299;28;20250;-68
2021/06/06 08:11:08;;;;;;;0.00;0.00;;;27.90;99.90;;;;;;4952351;28;20864;-68
2021/06/06 08:13:37;;;;;;;0.95;0.00;;;28.00;99.90;;;;;;4947937;28;20217;-71
2021/06/06 08:16:04;;;;;;;0.00;0.00;;;28.10;99.90;;;;;;4929536;28;20217;-68
2021/06/06 08:18:33;;;;;;;0.00;0.00;;;28.40;99.90;;;;;;4936861;28;20209;-68
2021/06/06 08:21:04;;;;;;;0.20;0.20;;;28.60;99.90;;;;;;4957064;28;20568;-68
2021/06/06 08:23:31;;;;;;;0.00;0.00;;;28.80;99.90;;;;;;4940562;28;20776;-68
2021/06/06 08:25:58;;;;;;;0.00;0.00;;;28.80;99.90;;;;;;4944021;28;20221;-68
2021/06/06 08:28:26;;;;;;;0.52;0.52;;;28.50;99.90;;;;;;4943436;28;20249;-69
2021/06/06 08:30:56;;;;;;;0.00;0.00;;;28.50;99.90;;;;;;4939385;28;20213;-68
2021/06/06 08:33:27;;;;;;;0.00;0.00;;;28.30;99.90;;;;;;4936141;28;20229;-70
2021/06/06 08:35:57;;;;;;;0.00;0.00;;;28.80;99.90;;;;;;4928593;28;20233;-69
2021/06/06 08:38:25;;;;;;;0.00;0.00;;;28.70;99.90;;;;;;4944191;28;20666;-70
2021/06/06 08:40:57;;;;;;;0.00;0.00;;;29.10;99.90;;;;;;4936292;28;20202;-68
2021/06/06 08:43:29;;;;;;;0.00;0.00;;;29.10;99.90;;;;;;4978054;28;20256;-68
2021/06/06 08:45:59;;;;;;;0.08;0.08;;;29.10;99.90;;;;;;4990403;28;20190;-68
2021/06/06 08:48:29;;;;;;;0.00;0.00;;;29.10;99.90;;;;;;4989732;28;20256;-68
2021/06/06 08:51:05;;;;;;;0.00;0.00;;;29.10;99.90;;;;;;4989594;28;20212;-71
2021/06/06 08:53:36;;;;;;;0.00;0.00;;;29.30;99.90;;;;;;4990234;28;20561;-67
2021/06/06 08:56:17;;;;;;;0.00;0.00;;;29.40;99.90;;;;;;4989214;28;20182;-70
2021/06/06 08:58:47;;;;;;;0.00;0.00;;;29.60;99.90;;;;;;4989019;28;20208;-70
2021/06/06 09:01:24;;;;;;;0.00;0.00;;;29.70;99.90;;;;;;4987674;28;20217;-75
2021/06/06 09:03:53;;;;;;;0.20;0.17;;;29.20;99.90;;;;;;4984928;28;20205;-70
2021/06/06 09:06:26;;;;;;;0.00;0.00;;;29.10;99.90;;;;;;4986981;28;20201;-69
2021/06/06 09:08:54;;;;;;;0.00;0.00;;;29.20;99.90;;;;;;4986331;28;20264;-70
2021/06/06 09:11:24;;;;;;;0.00;0.00;;;28.90;99.90;;;;;;4986595;28;20233;-70
2021/06/06 09:13:50;;;;;;;0.00;0.00;;;28.80;99.90;;;;;;4985051;28;20667;-70
2021/06/06 09:16:20;;;;;;;0.00;0.00;;;28.90;99.90;;;;;;4987182;28;20258;-72
2021/06/06 09:18:59;;;;;;;0.00;0.00;;;29.10;99.90;;;;;;4985729;28;20194;-72
2021/06/06 09:21:26;;;;;;;0.00;0.00;;;29.10;99.90;;;;;;4989779;28;20236;-70
2021/06/06 09:24:06;;;;;;;0.00;0.00;;;29.10;99.90;;;;;;4987999;28;20206;-70
2021/06/06 09:26:32;;;;;;;0.00;0.00;;;29.30;99.90;;;;;;4983423;28;20198;-71
2021/06/06 09:29:06;;;;;;;0.00;0.00;;;29.40;99.90;;;;;;4976825;28;20199;-70
2021/06/06 09:31:33;;;;;;;0.00;0.00;;;29.60;99.90;;;;;;4987257;28;20220;-71
2021/06/06 09:34:02;;;;;;;0.00;0.00;;;29.30;99.90;;;;;;4988897;28;20238;-71
2021/06/06 09:36:31;;;;;;;0.00;0.00;;;29.10;99.90;;;;;;4988425;28;20623;-72
2021/06/06 09:39:11;;;;;;;0.00;0.00;;;28.90;99.90;;;;;;4988435;28;20559;-71
2021/06/06 09:41:40;;;;;;;0.00;0.00;;;28.90;99.90;;;;;;4989553;28;20197;-70
2021/06/06 09:44:09;;;;;;;0.00;0.00;;;29.20;99.90;;;;;;4986866;28;20566;-70
2021/06/06 09:46:41;;;;;;;0.00;0.00;;;28.90;99.90;;;;;;4986779;28;20867;-69
2021/06/06 09:49:24;;;;;;;0.00;0.00;;;28.80;99.90;;;;;;4984078;28;20256;-69
2021/06/06 09:51:52;;;;;;;0.00;0.00;;;29.10;99.90;;;;;;4983476;28;20268;-70
2021/06/06 09:54:28;;;;;;;0.00;0.00;;;29.50;99.90;;;;;;4985369;28;20205;-71
2021/06/06 09:56:58;;;;;;;0.00;0.00;;;29.70;99.90;;;;;;4985726;28;20201;-70
2021/06/06 09:59:28;;;;;;;0.00;0.00;;;29.70;99.90;;;;;;4984915;28;20201;-71
2021/06/06 10:02:02;;;;;;;0.00;0.00;;;29.30;99.90;;;;;;4985851;28;20198;-72
2021/06/06 10:04:32;;;;;;;0.30;0.22;;;29.10;99.90;;;;;;4974699;28;20225;-70
2021/06/06 10:07:10;;;;;;;0.00;0.00;;;29.10;99.90;;;;;;4985677;28;20579;-72
2021/06/06 10:09:41;;;;;;;0.57;0.20;;;28.90;99.90;;;;;;4984977;28;20328;-68
2021/06/06 10:12:10;;;;;;;0.00;0.00;;;29.10;99.90;;;;;;4984609;28;20283;-73
2021/06/06 10:14:42;;;;;;;0.00;0.00;;;29.40;99.60;;;;;;4985556;28;20524;-71
2021/06/06 10:17:13;;;;;;;0.00;0.00;;;29.20;97.70;;;;;;4982293;28;20198;-71
2021/06/06 10:19:45;;;;;;;0.00;0.00;;;29.20;97.80;;;;;;4980052;28;20201;-70
2021/06/06 10:22:16;;;;;;;0.00;0.00;;;29.20;95.80;;;;;;4979315;28;20198;-71
2021/06/06 10:24:46;;;;;;;0.00;0.00;;;29.00;95.20;;;;;;4981739;28;20198;-71
2021/06/06 10:27:20;;;;;;;0.00;0.00;;;28.80;96.50;;;;;;4980255;28;20266;-70
2021/06/06 10:29:51;;;;;;;0.00;0.00;;;28.90;94.90;;;;;;4985495;28;20193;-70
2021/06/06 10:32:24;;;;;;;0.00;0.00;;;29.10;93.80;;;;;;4987889;28;20711;-71
2021/06/06 10:34:56;;;;;;;0.00;0.00;;;29.00;92.90;;;;;;4984406;28;20202;-69
2021/06/06 10:37:24;;;;;;;0.00;0.00;;;29.10;91.90;;;;;;4984370;28;20553;-71
2021/06/06 10:39:57;;;;;;;0.00;0.00;;;28.80;92.40;;;;;;4989017;28;20198;-71
2021/06/06 10:42:28;;;;;;;0.20;0.20;;;28.80;90.60;;;;;;4987410;28;20642;-70
2021/06/06 10:45:04;;;;;;;0.30;0.30;;;28.90;91.30;;;;;;4987183;28;20201;-70
2021/06/06 10:47:42;;;;;;;0.00;0.00;;;29.10;91.70;;;;;;4984355;28;20212;-71
2021/06/06 10:50:29;;;;;;;2.05;0.22;;;29.50;91.50;;;;;;4983865;28;20193;-70
2021/06/06 10:53:17;;;;;;;1.38;1.27;;;29.50;90.90;;;;;;4982790;28;20205;-70
2021/06/06 10:56:01;;;;;;;0.20;0.20;;;29.10;90.60;;;;;;4983852;28;20264;-71
2021/06/06 10:58:44;;;;;;;0.00;0.00;;;28.80;91.40;;;;;;4987397;28;20198;-70
2021/06/06 11:01:27;;;;;;;0.00;0.00;;;28.90;92.10;;;;;;4988659;28;20252;-70
2021/06/06 11:04:09;;;;;;;0.10;0.10;;;28.50;90.30;;;;;;4987113;28;20541;-68
2021/06/06 11:06:37;;;;;;;0.00;0.00;;;28.60;90.80;;;;;;4992092;28;20197;-71
2021/06/06 11:09:05;;;;;;;0.00;0.00;;;28.80;91.30;;;;;;4992128;28;20225;-70
2021/06/06 11:11:34;;;;;;;0.52;0.20;;;29.00;90.40;;;;;;4992270;28;20291;-69
2021/06/06 11:14:14;;;;;;;0.30;0.30;;;29.00;88.60;;;;;;4990377;28;20193;-71
2021/06/06 11:16:42;;;;;;;0.10;0.10;;;29.00;89.00;;;;;;4972813;28;20206;-78
2021/06/06 11:19:14;;;;;;;0.00;0.00;;;28.50;87.70;;;;;;4972733;28;20207;-72
2021/06/06 11:21:48;;;;;;;0.17;0.17;;;28.40;89.80;;;;;;4986653;28;20205;-71
2021/06/06 11:24:26;;;;;;;0.00;0.00;;;28.50;88.40;;;;;;4991450;28;20193;-71
2021/06/06 11:27:05;;;;;;;0.45;0.45;;;28.10;87.80;;;;;;4992063;28;20190;-71
2021/06/06 11:29:43;;;;;;;0.00;0.00;;;28.00;86.60;;;;;;4991793;28;20750;-71
2021/06/06 11:32:19;;;;;;;2.38;0.50;;;28.00;87.50;;;;;;4976276;28;20264;-71
2021/06/06 11:34:51;;;;;;;0.00;0.00;;;27.60;86.40;;;;;;4972409;28;20850;-70
2021/06/06 11:37:35;;;;;;;0.00;0.00;;;27.40;90.20;;;;;;4972000;28;20620;-70
2021/06/06 11:40:09;;;;;;;0.17;0.17;;;27.70;90.40;;;;;;4978087;28;20206;-71
2021/06/06 11:42:37;;;;;;;2.05;1.55;;;28.00;88.30;;;;;;4990932;28;20562;-72
2021/06/06 11:45:07;;;;;;;0.13;0.13;;;27.90;87.60;;;;;;4991446;28;20601;-70
2021/06/06 11:47:43;;;;;;;0.00;0.00;;;27.30;88.60;;;;;;4991218;28;20204;-72
2021/06/06 11:50:16;;;;;;;0.03;0.03;;;27.30;88.90;;;;;;4995048;28;20255;-70
2021/06/06 11:52:46;;;;;;;2.35;0.65;;;26.90;87.10;;;;;;4987251;28;20237;-70
2021/06/06 11:55:17;;;;;;;0.00;0.00;;;27.00;90.40;;;;;;4987065;28;20544;-72
2021/06/06 11:57:50;;;;;;;0.00;0.00;;;27.10;91.50;;;;;;4985366;28;20205;-70
2021/06/06 12:00:24;;;;;;;0.05;0.05;;;27.30;91.50;;;;;;4984839;28;20206;-71
2021/06/06 12:02:51;;;;;;;0.00;0.00;;;27.80;91.60;;;;;;4985897;28;20193;-71
2021/06/06 12:05:22;;;;;;;0.00;0.00;;;28.30;92.30;;;;;;4987102;28;20279;-72
2021/06/06 12:07:50;;;;;;;0.00;0.00;;;28.00;91.70;;;;;;4986497;28;20193;-72
2021/06/06 12:10:27;;;;;;;0.30;0.30;;;28.40;91.30;;;;;;4984773;28;20206;-71
2021/06/06 12:12:57;;;;;;;0.15;0.15;;;28.10;89.90;;;;;;4987636;28;20293;-71
2021/06/06 12:15:30;;;;;;;0.40;0.40;;;27.80;91.30;;;;;;4987835;28;20321;-73
2021/06/06 12:18:02;;;;;;;0.55;0.30;;;27.70;90.40;;;;;;4986329;28;20197;-72
2021/06/06 12:20:30;;;;;;;0.10;0.10;;;27.60;92.10;;;;;;4986896;28;20202;-70
2021/06/06 12:23:04;;;;;;;0.08;0.05;;;27.30;91.20;;;;;;4987192;28;20209;-71
2021/06/06 12:25:31;;;;;;;0.30;0.30;;;27.40;92.30;;;;;;4982121;28;20819;-71
2021/06/06 12:28:06;;;;;;;0.30;0.30;;;27.30;90.90;;;;;;4986505;28;20201;-71
2021/06/06 12:30:36;;;;;;;0.30;0.30;;;27.10;92.40;;;;;;4985573;28;20189;-71
2021/06/06 12:33:17;;;;;;;0.10;0.10;;;26.80;91.30;;;;;;4986684;28;20269;-72
2021/06/06 12:35:50;;;;;;;0.00;0.00;;;26.70;92.80;;;;;;4986058;28;20244;-73
2021/06/06 12:38:19;;;;;;;0.00;0.00;;;26.80;94.00;;;;;;4985461;28;20315;-70
2021/06/06 12:40:46;;;;;;;0.00;0.00;;;26.80;92.70;;;;;;4982417;28;20198;-72
2021/06/06 12:43:17;;;;;;;0.52;0.40;;;26.90;92.70;;;;;;4982435;28;20193;-71
2021/06/06 12:45:47;;;;;;;0.17;0.17;;;27.00;96.10;;;;;;4984533;28;20194;-72
2021/06/06 12:48:25;;;;;;;0.00;0.00;;;27.00;94.40;;;;;;4984873;28;20540;-72
2021/06/06 12:50:55;;;;;;;0.20;0.20;;;27.20;95.00;;;;;;4984738;28;20194;-71
2021/06/06 12:53:26;;;;;;;0.00;0.00;;;26.70;93.20;;;;;;4985332;28;20229;-73
2021/06/06 12:55:54;;;;;;;0.00;0.00;;;26.90;94.80;;;;;;4985343;28;20194;-70
2021/06/06 12:58:26;;;;;;;0.00;0.00;;;26.70;94.30;;;;;;4985718;28;20221;-71
2021/06/06 13:00:56;;;;;;;0.00;0.00;;;26.60;95.00;;;;;;4983861;28;20321;-70
2021/06/06 13:03:35;;;;;;;0.10;0.00;;;26.90;96.00;;;;;;4979907;28;20248;-70